Time,TemperatureF,DewpointF,PressureIn,WindDirection,WindDirectionDegrees,WindSpeedMPH,WindSpeedGustMPH,Humidity,HourlyPrecipIn,Conditions,Clouds,dailyrainin,SoftwareType,DateUTC
2013-09-15 00:11:00,48.6,48.0,30.27,NNW,331,0.0,-999.0,98,-99.99,,,0.06,weatherlink.com 1.10,2013-09-15 06:11:00,
2013-09-15 00:26:00,48.3,48.0,30.27,ENE,69,1.0,-999.0,98,-99.99,,,0.09,weatherlink.com 1.10,2013-09-15 06:26:00,
2013-09-15 00:41:00,48.2,48.0,30.27,ENE,69,0.0,-999.0,99,-99.99,,,0.10,weatherlink.com 1.10,2013-09-15 06:41:00,
2013-09-15 00:56:00,48.2,48.0,30.27,NW,320,0.0,-999.0,98,-99.99,,,0.11,weatherlink.com 1.10,2013-09-15 06:56:00,
2013-09-15 01:11:00,48.3,48.0,30.26,NW,320,0.0,-999.0,98,-99.99,,,0.11,weatherlink.com 1.10,2013-09-15 07:11:00,
2013-09-15 01:26:00,48.2,48.0,30.25,NW,320,0.0,-999.0,99,-99.99,,,0.11,weatherlink.com 1.10,2013-09-15 07:26:00,
2013-09-15 01:41:00,48.2,48.0,30.25,NW,320,0.0,-999.0,99,-99.99,,,0.11,weatherlink.com 1.10,2013-09-15 07:41:00,
2013-09-15 01:56:00,48.0,48.0,30.25,NW,320,0.0,-999.0,99,-99.99,,,0.11,weatherlink.com 1.10,2013-09-15 07:56:00,
2013-09-15 02:11:00,47.4,47.0,30.21,NW,320,0.0,-999.0,99,-99.99,,,0.11,weatherlink.com 1.10,2013-09-15 08:11:00,
2013-09-15 02:26:00,46.8,47.0,30.21,NW,320,0.0,-999.0,99,-99.99,,,0.11,weatherlink.com 1.10,2013-09-15 08:26:00,
2013-09-15 02:41:00,46.1,46.0,30.22,NW,320,0.0,-999.0,99,-99.99,,,0.11,weatherlink.com 1.10,2013-09-15 08:41:00,
2013-09-15 02:56:00,45.8,46.0,30.22,NW,320,0.0,-999.0,99,-99.99,,,0.12,weatherlink.com 1.10,2013-09-15 08:56:00,
2013-09-15 03:11:00,46.0,46.0,30.16,NW,320,0.0,-999.0,100,-99.99,,,0.12,weatherlink.com 1.10,2013-09-15 09:11:00,
2013-09-15 03:26:00,46.1,46.0,30.16,NW,320,0.0,-999.0,100,-99.99,,,0.12,weatherlink.com 1.10,2013-09-15 09:26:00,
2013-09-15 03:41:00,46.2,46.0,30.16,NW,320,0.0,-999.0,100,-99.99,,,0.12,weatherlink.com 1.10,2013-09-15 09:41:00,
2013-09-15 03:55:00,46.5,47.0,30.17,NW,320,0.0,-999.0,100,-99.99,,,0.12,weatherlink.com 1.10,2013-09-15 09:55:00,
2013-09-15 04:11:00,46.7,47.0,30.18,NW,320,0.0,-999.0,100,-99.99,,,0.12,weatherlink.com 1.10,2013-09-15 10:11:00,
2013-09-15 04:26:00,46.8,47.0,30.14,NW,320,0.0,-999.0,100,-99.99,,,0.12,weatherlink.com 1.10,2013-09-15 10:26:00,
2013-09-15 04:40:00,47.0,47.0,30.14,NW,320,0.0,-999.0,100,-99.99,,,0.12,weatherlink.com 1.10,2013-09-15 10:40:00,
2013-09-15 04:55:00,47.0,47.0,30.14,NW,320,0.0,-999.0,100,-99.99,,,0.12,weatherlink.com 1.10,2013-09-15 10:55:00,
2013-09-15 05:11:00,47.0,47.0,30.14,NW,320,0.0,-999.0,100,-99.99,,,0.12,weatherlink.com 1.10,2013-09-15 11:11:00,
2013-09-15 05:25:00,47.0,47.0,30.20,NW,320,0.0,-999.0,100,-99.99,,,0.12,weatherlink.com 1.10,2013-09-15 11:25:00,
2013-09-15 05:41:00,47.1,47.0,30.20,NW,320,0.0,-999.0,100,-99.99,,,0.12,weatherlink.com 1.10,2013-09-15 11:41:00,
2013-09-15 05:56:00,47.0,47.0,30.20,NW,320,0.0,-999.0,100,-99.99,,,0.12,weatherlink.com 1.10,2013-09-15 11:56:00,
2013-09-15 06:11:00,47.0,47.0,30.20,NW,320,0.0,-999.0,100,-99.99,,,0.12,weatherlink.com 1.10,2013-09-15 12:11:00,
2013-09-15 06:26:00,47.0,47.0,30.24,NW,320,0.0,-999.0,100,-99.99,,,0.12,weatherlink.com 1.10,2013-09-15 12:26:00,
2013-09-15 06:41:00,47.0,47.0,30.24,NW,320,0.0,-999.0,100,-99.99,,,0.12,weatherlink.com 1.10,2013-09-15 12:41:00,
2013-09-15 06:56:00,47.0,47.0,30.25,NW,320,0.0,-999.0,100,-99.99,,,0.12,weatherlink.com 1.10,2013-09-15 12:56:00,
2013-09-15 07:26:00,47.0,47.0,30.27,NW,320,0.0,-999.0,100,-99.99,,,0.12,weatherlink.com 1.10,2013-09-15 13:26:00,
2013-09-15 07:56:00,47.9,48.0,30.26,NW,320,0.0,-999.0,100,-99.99,,,0.12,weatherlink.com 1.10,2013-09-15 13:56:00,
2013-09-15 08:11:00,48.8,49.0,30.27,NW,320,0.0,-999.0,100,-99.99,,,0.12,weatherlink.com 1.10,2013-09-15 14:11:00,
2013-09-15 08:26:00,49.5,50.0,30.27,NW,320,0.0,-999.0,100,-99.99,,,0.12,weatherlink.com 1.10,2013-09-15 14:26:00,
2013-09-15 08:41:00,49.8,50.0,30.26,NW,320,0.0,-999.0,100,-99.99,,,0.12,weatherlink.com 1.10,2013-09-15 14:41:00,
2013-09-15 08:56:00,49.8,50.0,30.27,NW,320,0.0,-999.0,100,-99.99,,,0.12,weatherlink.com 1.10,2013-09-15 14:56:00,
2013-09-15 09:11:00,49.9,50.0,30.27,NW,320,0.0,-999.0,100,-99.99,,,0.12,weatherlink.com 1.10,2013-09-15 15:11:00,
2013-09-15 09:26:00,50.4,50.0,30.27,NW,320,0.0,-999.0,100,-99.99,,,0.12,weatherlink.com 1.10,2013-09-15 15:26:00,
2013-09-15 09:41:00,51.3,51.0,30.28,NW,320,0.0,-999.0,100,-99.99,,,0.12,weatherlink.com 1.10,2013-09-15 15:41:00,
2013-09-15 09:56:00,54.8,53.0,30.29,NW,320,0.0,-999.0,92,-99.99,,,0.12,weatherlink.com 1.10,2013-09-15 15:56:00,
2013-09-15 10:11:00,57.0,52.0,30.24,ENE,70,0.0,-999.0,82,-99.99,,,0.12,weatherlink.com 1.10,2013-09-15 16:11:00,
2013-09-15 10:26:00,56.6,50.0,30.25,ENE,74,6.0,-999.0,79,-99.99,,,0.12,weatherlink.com 1.10,2013-09-15 16:26:00,
2013-09-15 10:41:00,55.9,49.0,30.25,ENE,76,0.0,-999.0,77,-99.99,,,0.12,weatherlink.com 1.10,2013-09-15 16:41:00,
2013-09-15 10:56:00,58.9,49.0,30.27,ENE,76,0.0,-999.0,71,-99.99,,,0.12,weatherlink.com 1.10,2013-09-15 16:56:00,
2013-09-15 11:11:00,61.5,49.0,30.24,East,79,0.0,-999.0,64,-99.99,,,0.12,weatherlink.com 1.10,2013-09-15 17:11:00,
2013-09-15 11:26:00,62.3,48.0,30.22,ESE,119,1.0,-999.0,61,-99.99,,,0.12,weatherlink.com 1.10,2013-09-15 17:26:00,
2013-09-15 11:41:00,63.2,48.0,30.21,SE,131,2.0,-999.0,58,-99.99,,,0.12,weatherlink.com 1.10,2013-09-15 17:41:00,
2013-09-15 11:56:00,65.2,48.0,30.19,SE,125,7.0,-999.0,55,-99.99,,,0.12,weatherlink.com 1.10,2013-09-15 17:56:00,
2013-09-15 12:11:00,64.3,50.0,30.20,South,175,0.0,-999.0,60,-99.99,,,0.12,weatherlink.com 1.10,2013-09-15 18:11:00,
2013-09-15 12:26:00,64.5,49.0,30.20,South,182,3.0,-999.0,58,-99.99,,,0.12,weatherlink.com 1.10,2013-09-15 18:26:00,
2013-09-15 12:41:00,65.0,47.0,30.20,WSW,239,7.0,-999.0,53,-99.99,,,0.12,weatherlink.com 1.10,2013-09-15 18:41:00,
2013-09-15 12:56:00,65.3,49.0,30.19,WNW,283,4.0,-999.0,55,-99.99,,,0.12,weatherlink.com 1.10,2013-09-15 18:56:00,
2013-09-15 13:11:00,66.3,47.0,30.19,WSW,237,2.0,-999.0,50,-99.99,,,0.12,weatherlink.com 1.10,2013-09-15 19:11:00,
2013-09-15 13:26:00,65.5,47.0,30.19,SW,221,1.0,-999.0,51,-99.99,,,0.12,weatherlink.com 1.10,2013-09-15 19:26:00,
2013-09-15 13:41:00,68.6,50.0,30.15,ENE,76,0.0,-999.0,52,-99.99,,,0.12,weatherlink.com 1.10,2013-09-15 19:41:00,
2013-09-15 13:56:00,68.8,49.0,30.16,ESE,115,0.0,-999.0,49,-99.99,,,0.12,weatherlink.com 1.10,2013-09-15 19:56:00,
2013-09-15 14:11:00,69.1,46.0,30.16,SSW,200,4.0,-999.0,43,-99.99,,,0.12,weatherlink.com 1.10,2013-09-15 20:11:00,
2013-09-15 14:26:00,68.3,46.0,30.16,SE,132,1.0,-999.0,45,-99.99,,,0.12,weatherlink.com 1.10,2013-09-15 20:26:00,
2013-09-15 14:41:00,69.1,47.0,30.16,South,189,1.0,-999.0,46,-99.99,,,0.12,weatherlink.com 1.10,2013-09-15 20:41:00,
2013-09-15 14:56:00,68.3,46.0,30.16,SE,129,0.0,-999.0,45,-99.99,,,0.12,weatherlink.com 1.10,2013-09-15 20:56:00,
2013-09-15 15:11:00,68.9,45.0,30.16,ESE,108,3.0,-999.0,43,-99.99,,,0.12,weatherlink.com 1.10,2013-09-15 21:11:00,
2013-09-15 15:26:00,69.1,47.0,30.14,ESE,115,1.0,-999.0,46,-99.99,,,0.12,weatherlink.com 1.10,2013-09-15 21:26:00,
2013-09-15 15:41:00,68.4,46.0,30.14,SE,146,2.0,-999.0,45,-99.99,,,0.12,weatherlink.com 1.10,2013-09-15 21:41:00,
2013-09-15 15:56:00,71.8,47.0,30.13,SSE,158,0.0,-999.0,42,-99.99,,,0.12,weatherlink.com 1.10,2013-09-15 21:56:00,
2013-09-15 16:11:00,68.6,47.0,30.12,SSE,165,0.0,-999.0,46,-99.99,,,0.12,weatherlink.com 1.10,2013-09-15 22:11:00,
2013-09-15 16:26:00,65.6,47.0,30.13,South,183,2.0,-999.0,51,-99.99,,,0.12,weatherlink.com 1.10,2013-09-15 22:26:00,
2013-09-15 16:41:00,67.6,45.0,30.16,South,182,0.0,-999.0,45,-99.99,,,0.12,weatherlink.com 1.10,2013-09-15 22:41:00,
2013-09-15 16:56:00,65.6,47.0,30.14,SSW,201,0.0,-999.0,52,-99.99,,,0.12,weatherlink.com 1.10,2013-09-15 22:56:00,
2013-09-15 17:11:00,66.8,48.0,30.15,SSW,201,0.0,-999.0,51,-99.99,,,0.12,weatherlink.com 1.10,2013-09-15 23:11:00,
2013-09-15 17:26:00,68.8,48.0,30.13,South,191,0.0,-999.0,48,-99.99,,,0.12,weatherlink.com 1.10,2013-09-15 23:26:00,
2013-09-15 17:41:00,66.3,49.0,30.12,South,191,0.0,-999.0,54,-99.99,,,0.12,weatherlink.com 1.10,2013-09-15 23:41:00,
2013-09-15 17:56:00,64.8,50.0,30.15,South,191,0.0,-999.0,60,-99.99,,,0.12,weatherlink.com 1.10,2013-09-15 23:56:00,
2013-09-15 18:11:00,64.8,53.0,30.16,South,191,0.0,-999.0,66,-99.99,,,0.12,weatherlink.com 1.10,2013-09-16 00:11:00,
2013-09-15 18:26:00,64.5,52.0,30.15,South,191,2.0,-999.0,64,-99.99,,,0.12,weatherlink.com 1.10,2013-09-16 00:26:00,
2013-09-15 18:41:00,62.6,51.0,30.17,North,355,0.0,-999.0,65,-99.99,,,0.12,weatherlink.com 1.10,2013-09-16 00:41:00,
2013-09-15 18:56:00,60.9,53.0,30.19,North,355,0.0,-999.0,74,-99.99,,,0.12,weatherlink.com 1.10,2013-09-16 00:56:00,
2013-09-15 19:11:00,59.5,52.0,30.19,North,355,0.0,-999.0,75,-99.99,,,0.12,weatherlink.com 1.10,2013-09-16 01:11:00,
2013-09-15 19:26:00,58.1,52.0,30.23,North,355,0.0,-999.0,80,-99.99,,,0.12,weatherlink.com 1.10,2013-09-16 01:26:00,
2013-09-15 19:41:00,56.6,51.0,30.22,North,355,0.0,-999.0,80,-99.99,,,0.12,weatherlink.com 1.10,2013-09-16 01:41:00,
2013-09-15 19:56:00,56.5,50.0,30.25,North,355,0.0,-999.0,80,-99.99,,,0.12,weatherlink.com 1.10,2013-09-16 01:56:00,
2013-09-15 20:11:00,55.9,51.0,30.25,North,355,0.0,-999.0,82,-99.99,,,0.12,weatherlink.com 1.10,2013-09-16 02:11:00,
2013-09-15 20:26:00,54.4,50.0,30.25,North,355,0.0,-999.0,85,-99.99,,,0.12,weatherlink.com 1.10,2013-09-16 02:26:00,
2013-09-15 20:41:00,53.6,49.0,30.26,North,355,0.0,-999.0,85,-99.99,,,0.12,weatherlink.com 1.10,2013-09-16 02:41:00,
2013-09-15 20:56:00,53.2,49.0,30.27,North,355,0.0,-999.0,86,-99.99,,,0.12,weatherlink.com 1.10,2013-09-16 02:56:00,
2013-09-15 21:11:00,52.8,48.0,30.29,North,355,0.0,-999.0,85,-99.99,,,0.12,weatherlink.com 1.10,2013-09-16 03:11:00,
2013-09-15 21:26:00,52.6,49.0,30.25,North,355,0.0,-999.0,87,-99.99,,,0.12,weatherlink.com 1.10,2013-09-16 03:26:00,
2013-09-15 21:41:00,51.9,48.0,30.25,North,355,0.0,-999.0,86,-99.99,,,0.12,weatherlink.com 1.10,2013-09-16 03:41:00,
2013-09-15 21:56:00,52.0,48.0,30.28,North,355,0.0,-999.0,86,-99.99,,,0.12,weatherlink.com 1.10,2013-09-16 03:56:00,
2013-09-15 22:11:00,53.1,47.0,30.28,WSW,252,0.0,-999.0,81,-99.99,,,0.12,weatherlink.com 1.10,2013-09-16 04:11:00,
2013-09-15 22:26:00,53.1,48.0,30.23,WSW,252,0.0,-999.0,82,-99.99,,,0.12,weatherlink.com 1.10,2013-09-16 04:26:00,
2013-09-15 22:41:00,52.2,47.0,30.24,WSW,252,1.0,-999.0,83,-99.99,,,0.12,weatherlink.com 1.10,2013-09-16 04:41:00,
2013-09-15 22:56:00,51.7,47.0,30.26,WSW,252,0.0,-999.0,85,-99.99,,,0.12,weatherlink.com 1.10,2013-09-16 04:56:00,
2013-09-15 23:11:00,51.1,47.0,30.27,WSW,252,0.0,-999.0,86,-99.99,,,0.12,weatherlink.com 1.10,2013-09-16 05:11:00,
2013-09-15 23:26:00,50.7,47.0,30.22,WSW,252,0.0,-999.0,87,-99.99,,,0.12,weatherlink.com 1.10,2013-09-16 05:26:00,
2013-09-15 23:41:00,50.4,47.0,30.22,WSW,252,0.0,-999.0,88,-99.99,,,0.12,weatherlink.com 1.10,2013-09-16 05:41:00,
2013-09-15 23:56:00,50.5,47.0,30.24,WSW,252,0.0,-999.0,87,-99.99,,,0.12,weatherlink.com 1.10,2013-09-16 05:56:00,